Time;durP1;ratioP1;P1;durP2;ratioP2;P2;SDS_P1;SDS_P2;PMS_P1;PMS_P2;Temp;Humidity;BMP_temperature;BMP_pressure;BME280_temperature;BME280_humidity;BME280_pressure;Samples;Min_cycle;Max_cycle;Signal;HPM_P1;HPM_P2
2021/10/25 00:01:06;;;;;;;12.13;5.27;;;;;;;6.84;54.27;102252.44;125237;1102;104303;-80
2021/10/25 00:03:34;;;;;;;11.60;5.00;;;;;;;6.84;54.40;102257.66;125174;1102;104163;-79
2021/10/25 00:06:04;;;;;;;10.50;4.60;;;;;;;6.82;54.47;102254.02;125126;1102;104294;-80
2021/10/25 00:08:32;;;;;;;9.83;4.50;;;;;;;6.80;54.14;102255.58;125226;1102;104184;-79
2021/10/25 00:11:00;;;;;;;13.03;5.10;;;;;;;6.79;54.06;102255.46;125257;1102;104117;-80
2021/10/25 00:13:37;;;;;;;13.18;5.60;;;;;;;6.76;54.23;102263.98;124933;1104;104223;-79
2021/10/25 00:16:06;;;;;;;12.07;5.50;;;;;;;6.70;53.94;102262.55;125022;1102;104398;-79
2021/10/25 00:18:36;;;;;;;13.47;5.70;;;;;;;6.65;54.19;102270.02;124920;1102;104163;-79
2021/10/25 00:21:04;;;;;;;14.47;5.30;;;;;;;6.61;54.27;102273.19;124999;1105;104182;-79
2021/10/25 00:23:33;;;;;;;15.40;6.70;;;;;;;6.55;54.34;102273.59;124982;1104;104306;-78
2021/10/25 00:26:00;;;;;;;17.03;6.80;;;;;;;6.47;54.41;102279.91;124958;1106;104675;-79
2021/10/25 00:28:28;;;;;;;19.80;7.03;;;;;;;6.41;54.93;102282.91;124940;1102;104245;-80
2021/10/25 00:30:56;;;;;;;20.43;7.17;;;;;;;6.34;54.71;102283.19;124965;1103;104313;-79
2021/10/25 00:33:24;;;;;;;19.63;7.90;;;;;;;6.29;54.96;102281.91;125011;1102;104293;-79
2021/10/25 00:35:57;;;;;;;18.30;7.40;;;;;;;6.23;54.72;102281.41;124944;1102;104631;-80
2021/10/25 00:38:25;;;;;;;19.65;7.55;;;;;;;6.20;54.91;102284.70;124883;1102;104187;-79
2021/10/25 00:40:54;;;;;;;18.50;7.80;;;;;;;6.19;55.08;102284.58;124980;1105;104428;-79
2021/10/25 00:43:22;;;;;;;17.40;7.67;;;;;;;6.19;54.89;102281.97;124974;1105;104354;-80
2021/10/25 00:45:50;;;;;;;19.90;8.00;;;;;;;6.17;55.38;102286.12;125119;1102;104149;-79
2021/10/25 00:48:18;;;;;;;18.63;7.97;;;;;;;6.08;55.31;102268.95;124965;1103;104236;-79
2021/10/25 00:50:47;;;;;;;23.07;8.43;;;;;;;6.01;55.75;102274.44;125136;1102;106965;-79
2021/10/25 00:53:15;;;;;;;20.37;8.10;;;;;;;5.96;56.09;102277.43;125217;1102;104197;-78
2021/10/25 00:55:44;;;;;;;20.27;8.87;;;;;;;5.91;55.72;102279.66;125219;1102;104204;-79
2021/10/25 00:58:13;;;;;;;17.23;7.63;;;;;;;5.90;55.71;102278.72;125208;1102;104273;-79
2021/10/25 01:00:42;;;;;;;20.30;8.90;;;;;;;5.93;55.94;102280.68;124919;1102;104255;-80
2021/10/25 01:03:10;;;;;;;17.97;7.70;;;;;;;5.94;55.50;102272.99;125161;1101;103993;-79
2021/10/25 01:05:39;;;;;;;23.37;8.37;;;;;;;5.91;55.90;102279.66;125105;1102;105290;-79
2021/10/25 01:08:09;;;;;;;18.97;8.30;;;;;;;5.86;56.24;102287.09;125219;1102;104152;-80
2021/10/25 01:10:37;;;;;;;22.40;8.30;;;;;;;5.80;56.21;102283.03;125215;1102;104134;-80
2021/10/25 01:13:06;;;;;;;19.67;8.53;;;;;;;5.72;56.29;102288.54;125283;1102;104157;-80
2021/10/25 01:15:36;;;;;;;19.20;8.27;;;;;;;5.65;56.54;102286.19;125218;1102;104163;-80
2021/10/25 01:18:05;;;;;;;20.33;8.00;;;;;;;5.58;56.37;102289.08;125325;1102;104236;-80
2021/10/25 01:20:33;;;;;;;18.20;7.97;;;;;;;5.54;56.62;102292.19;125188;1102;104283;-80
2021/10/25 01:23:02;;;;;;;23.77;8.50;;;;;;;5.52;56.39;102294.66;125291;1102;104220;-80
2021/10/25 01:25:30;;;;;;;18.17;8.57;;;;;;;5.54;56.39;102281.78;125194;1102;104303;-81
2021/10/25 01:27:59;;;;;;;18.70;8.40;;;;;;;5.55;56.52;102288.81;125197;1102;104206;-80
2021/10/25 01:30:29;;;;;;;20.20;8.70;;;;;;;5.51;56.80;102287.63;125110;1102;105486;-79
2021/10/25 01:32:57;;;;;;;20.60;8.60;;;;;;;5.46;56.79;102277.63;125214;1102;104604;-80
2021/10/25 01:35:26;;;;;;;19.53;8.23;;;;;;;5.41;56.78;102290.25;125199;1102;104217;-79
2021/10/25 01:37:54;;;;;;;21.17;8.20;;;;;;;5.39;57.09;102289.19;125168;1102;104214;-80
2021/10/25 01:40:23;;;;;;;20.50;7.90;;;;;;;5.37;56.60;102286.45;125187;1102;104206;-80
2021/10/25 01:42:51;;;;;;;19.40;8.97;;;;;;;5.36;56.78;102287.25;125139;1102;104678;-79
2021/10/25 01:45:19;;;;;;;21.63;8.27;;;;;;;5.35;56.83;102288.02;125199;1102;104153;-79
2021/10/25 01:47:49;;;;;;;19.20;8.40;;;;;;;5.30;57.34;102294.53;125171;1102;104205;-79
2021/10/25 01:50:17;;;;;;;19.00;7.97;;;;;;;5.24;56.98;102290.51;125097;1102;104162;-79
2021/10/25 01:52:47;;;;;;;20.53;8.77;;;;;;;5.19;57.19;102293.61;125145;1102;104329;-79
2021/10/25 01:55:15;;;;;;;19.03;8.10;;;;;;;5.15;57.44;102290.61;125232;1102;104165;-80
2021/10/25 01:57:44;;;;;;;20.37;7.93;;;;;;;5.11;57.41;102288.52;125208;1102;104739;-79
2021/10/25 02:00:13;;;;;;;20.33;8.10;;;;;;;5.10;57.62;102297.13;125174;1102;104169;-79
2021/10/25 02:02:46;;;;;;;20.20;9.30;;;;;;;5.07;57.56;102297.76;125194;1102;104166;-79
2021/10/25 02:05:34;;;;;;;18.83;7.83;;;;;;;5.07;57.67;102297.76;125154;1102;104310;-79
2021/10/25 02:08:03;;;;;;;18.30;7.93;;;;;;;5.10;57.40;102294.52;125160;1102;104184;-79
2021/10/25 02:10:41;;;;;;;19.33;8.40;;;;;;;5.18;57.55;102288.28;125115;1102;104233;-79
2021/10/25 02:13:15;;;;;;;22.83;8.07;;;;;;;5.25;57.72;102290.64;125231;1102;104681;-79
2021/10/25 02:15:45;;;;;;;19.67;8.07;;;;;;;5.28;58.05;102290.87;125212;1102;104351;-79
2021/10/25 02:18:14;;;;;;;21.80;8.20;;;;;;;5.31;57.55;102293.73;125174;1102;104168;-79
2021/10/25 02:20:44;;;;;;;16.83;7.47;;;;;;;5.31;58.02;102300.64;125129;1102;104307;-79
2021/10/25 02:23:19;;;;;;;20.47;8.37;;;;;;;5.30;58.01;102289.33;125168;1102;106122;-79
2021/10/25 02:25:51;;;;;;;20.57;8.07;;;;;;;5.32;58.33;102297.27;125224;1102;104166;-79
2021/10/25 02:28:23;;;;;;;22.17;8.73;;;;;;;5.32;57.93;102292.97;125024;1102;104226;-79
2021/10/25 02:30:57;;;;;;;17.90;8.17;;;;;;;5.32;57.61;102292.97;124949;1102;104283;-79
2021/10/25 02:33:32;;;;;;;21.47;8.90;;;;;;;5.31;58.49;102293.73;125215;1102;104156;-79
2021/10/25 02:36:07;;;;;;;19.87;8.73;;;;;;;5.30;58.23;102293.60;125134;1102;104139;-78
2021/10/25 02:38:42;;;;;;;22.13;8.07;;;;;;;5.25;57.90;102290.64;125238;1102;104165;-78
2021/10/25 02:41:11;;;;;;;19.80;8.53;;;;;;;5.18;58.19;102286.58;125141;1102;104147;-79
2021/10/25 02:43:40;;;;;;;21.53;8.13;;;;;;;5.14;58.49;102288.78;125103;1102;104185;-79
2021/10/25 02:46:08;;;;;;;19.83;7.93;;;;;;;5.11;58.26;102291.12;125102;1102;104197;-79
2021/10/25 02:48:42;;;;;;;18.40;8.53;;;;;;;5.10;58.42;102289.31;125112;1102;104232;-79
2021/10/25 02:51:10;;;;;;;18.57;8.70;;;;;;;5.12;58.05;102291.25;124961;1102;104296;-80
2021/10/25 02:53:38;;;;;;;19.73;8.30;;;;;;;5.15;58.51;102291.52;125269;1102;104181;-79
2021/10/25 02:56:07;;;;;;;19.97;8.73;;;;;;;5.17;58.18;102287.37;125150;1102;104210;-79
2021/10/25 02:58:37;;;;;;;20.10;8.00;;;;;;;5.19;58.15;102287.52;125118;1102;104226;-79
2021/10/25 03:01:11;;;;;;;20.17;8.47;;;;;;;5.19;58.32;102287.52;125146;1102;104636;-80
2021/10/25 03:03:44;;;;;;;20.70;8.83;;;;;;;5.20;58.83;102286.70;125135;1102;104631;-79
2021/10/25 03:06:17;;;;;;;20.87;8.70;;;;;;;5.21;58.86;102296.34;125177;1102;104278;-79
2021/10/25 03:08:49;;;;;;;18.70;9.30;;;;;;;5.19;58.54;102292.72;125131;1102;104198;-80
2021/10/25 03:11:19;;;;;;;19.20;8.50;;;;;;;5.16;58.37;102293.34;124996;1103;104185;-79
2021/10/25 03:13:54;;;;;;;19.40;8.90;;;;;;;5.12;58.30;102293.85;125237;1102;104230;-80
2021/10/25 03:16:24;;;;;;;20.93;8.67;;;;;;;5.12;58.20;102300.76;125288;1102;104222;-79
2021/10/25 03:18:54;;;;;;;19.40;8.43;;;;;;;5.12;58.28;102288.65;125240;1102;104268;-80
2021/10/25 03:21:23;;;;;;;22.20;8.60;;;;;;;5.11;58.32;102293.72;125111;1102;104622;-80
2021/10/25 03:23:54;;;;;;;19.63;8.37;;;;;;;5.10;58.09;102291.92;125214;1102;104205;-80
2021/10/25 03:26:26;;;;;;;19.77;8.63;;;;;;;5.11;58.41;102288.52;125190;1102;104342;-80
2021/10/25 03:28:55;;;;;;;25.20;9.57;;;;;;;5.11;58.57;102286.84;125213;1102;104300;-80
2021/10/25 03:31:24;;;;;;;20.30;8.97;;;;;;;5.10;58.56;102286.72;125059;1102;104312;-79
2021/10/25 03:33:55;;;;;;;19.17;8.10;;;;;;;5.05;58.37;102283.71;125179;1102;104296;-80
2021/10/25 03:36:31;;;;;;;19.30;8.07;;;;;;;5.00;58.19;102283.31;125224;1102;104162;-80
2021/10/25 03:39:03;;;;;;;18.23;8.10;;;;;;;4.95;59.01;102286.28;125217;1103;104281;-79
2021/10/25 03:41:39;;;;;;;23.53;8.93;;;;;;;4.92;58.56;102286.92;125281;1102;104156;-79
2021/10/25 03:44:12;;;;;;;20.13;8.47;;;;;;;4.90;59.02;102282.38;125197;1102;119027;-79
2021/10/25 03:46:46;;;;;;;20.90;8.60;;;;;;;4.88;58.52;102300.45;125148;1102;104300;-78
2021/10/25 03:49:28;;;;;;;22.30;8.60;;;;;;;4.80;59.07;102301.45;125243;1102;104166;-79
2021/10/25 03:52:23;;;;;;;23.47;9.00;;;;;;;4.68;58.90;102297.00;125190;1102;104156;-79
2021/10/25 03:54:58;;;;;;;24.93;8.40;;;;;;;4.62;59.13;102296.46;125261;1102;104293;-79
2021/10/25 03:57:42;;;;;;;22.23;9.10;;;;;;;4.59;59.16;102305.69;125233;1102;104176;-79
2021/10/25 04:33:10;;;;;;;24.63;9.37;;;;;;;4.66;59.46;102292.47;125793;1105;104233;-78
2021/10/25 04:36:11;;;;;;;22.90;9.10;;;;;;;4.65;59.38;102296.73;125768;1105;112470;-78
2021/10/25 04:39:09;;;;;;;23.40;9.60;;;;;;;4.65;59.66;102286.33;125630;1105;104220;-78
2021/10/25 04:41:52;;;;;;;27.03;9.80;;;;;;;4.65;59.90;102296.73;125380;1102;104185;-78
2021/10/25 04:44:55;;;;;;;25.33;9.43;;;;;;;4.62;59.39;102293.86;125137;1102;104191;-78
2021/10/25 04:47:44;;;;;;;26.27;9.90;;;;;;;4.56;59.95;102301.12;125387;1102;104293;-78
2021/10/25 04:50:29;;;;;;;23.33;9.10;;;;;;;4.51;59.38;102305.01;125094;1102;104290;-77
2021/10/25 04:53:11;;;;;;;21.87;9.33;;;;;;;4.47;60.09;102301.23;125156;1102;104238;-77
2021/10/25 04:55:39;;;;;;;21.63;9.00;;;;;;;4.44;59.97;102311.36;125094;1102;104210;-77
2021/10/25 04:58:07;;;;;;;22.87;9.53;;;;;;;4.41;59.77;102310.15;125144;1102;104162;-78
2021/10/25 05:00:37;;;;;;;22.55;9.95;;;;;;;4.43;60.36;102313.82;125184;1102;104156;-77
2021/10/25 05:03:06;;;;;;;24.53;8.93;;;;;;;4.45;59.99;102322.66;125098;1102;104676;-78
2021/10/25 05:05:35;;;;;;;20.93;9.43;;;;;;;4.47;60.25;102318.50;125023;1102;104153;-78
2021/10/25 05:11:06;;;;;;;22.87;9.03;;;;;;;4.56;60.55;102316.72;125112;1102;104637;-78
2021/10/25 05:13:34;;;;;;;20.97;9.20;;;;;;;4.54;60.21;102318.28;124998;1102;104188;-78
2021/10/25 05:16:02;;;;;;;23.47;9.30;;;;;;;4.53;60.01;102321.64;125172;1102;104200;-79
2021/10/25 05:18:30;;;;;;;23.30;9.80;;;;;;;4.53;60.61;102323.34;125149;1102;104184;-78
2021/10/25 05:20:59;;;;;;;21.43;9.03;;;;;;;4.53;60.86;102321.64;125173;1102;104169;-78
2021/10/25 05:23:27;;;;;;;27.00;9.53;;;;;;;4.53;60.49;102329.44;125155;1102;104432;-78
2021/10/25 05:25:55;;;;;;;22.83;9.80;;;;;;;4.52;60.71;102329.30;125122;1102;104184;-78
2021/10/25 05:28:23;;;;;;;23.93;10.40;;;;;;;4.50;60.33;102332.70;125143;1101;104316;-79
2021/10/25 05:30:52;;;;;;;24.27;11.00;;;;;;;4.46;60.94;102327.99;125055;1102;104166;-78
2021/10/25 05:33:30;;;;;;;28.53;11.37;;;;;;;4.42;60.23;102327.58;125064;1101;104348;-78
2021/10/25 05:36:14;;;;;;;23.60;10.13;;;;;;;4.43;61.01;102334.61;124812;1102;104149;-78
2021/10/25 05:38:43;;;;;;;23.55;10.53;;;;;;;4.42;60.80;102330.18;125004;1102;104166;-77
2021/10/25 05:41:15;;;;;;;23.33;10.73;;;;;;;4.40;60.38;102335.23;125121;1102;104283;-78
2021/10/25 05:43:48;;;;;;;27.27;11.40;;;;;;;4.46;61.10;102332.30;125098;1102;104156;-78
2021/10/25 05:46:18;;;;;;;28.67;10.77;;;;;;;4.49;60.63;102329.97;124921;1103;104313;-78
2021/10/25 05:48:51;;;;;;;26.48;10.95;;;;;;;4.52;61.22;102331.91;124977;1102;104165;-78
2021/10/25 05:51:30;;;;;;;26.37;11.83;;;;;;;4.52;60.91;102338.04;125109;1102;104258;-79
2021/10/25 05:54:02;;;;;;;26.27;11.57;;;;;;;4.51;61.04;102344.00;125073;1102;104316;-78
2021/10/25 05:56:35;;;;;;;28.63;12.20;;;;;;;4.54;61.61;102349.48;124876;1102;104385;-78
2021/10/25 05:59:05;;;;;;;25.50;11.35;;;;;;;4.56;61.16;102352.22;125059;1102;104307;-78
2021/10/25 06:01:40;;;;;;;28.47;11.97;;;;;;;4.61;61.36;102354.47;124960;1102;104453;-78
2021/10/25 06:04:25;;;;;;;29.57;12.37;;;;;;;4.65;61.56;102353.94;125163;1102;104344;-78
2021/10/25 06:07:07;;;;;;;32.90;13.77;;;;;;;4.72;61.19;102357.09;125014;1102;104239;-78
2021/10/25 06:09:36;;;;;;;29.90;14.13;;;;;;;4.78;61.90;102362.84;124917;1105;104291;-78
2021/10/25 06:12:09;;;;;;;29.57;14.53;;;;;;;4.81;61.14;102348.41;125139;1102;104382;-77
2021/10/25 06:14:48;;;;;;;31.13;15.37;;;;;;;4.88;61.13;102362.89;125067;1102;104258;-77
2021/10/25 06:17:38;;;;;;;27.93;13.03;;;;;;;4.98;61.46;102360.30;124931;1102;102534;-78
2021/10/25 06:20:11;;;;;;;29.47;13.13;;;;;;;5.08;61.44;102362.05;125024;1102;104297;-76
2021/10/25 06:22:40;;;;;;;26.83;11.27;;;;;;;5.19;61.70;102361.28;125145;1102;104176;-77
2021/10/25 06:25:13;;;;;;;29.90;12.20;;;;;;;5.29;61.36;102368.19;125174;1102;104344;-77
2021/10/25 06:27:47;;;;;;;23.73;11.40;;;;;;;5.42;61.25;102364.05;124828;1106;104162;-77
2021/10/25 06:30:16;;;;;;;27.90;10.87;;;;;;;5.56;61.46;102369.68;124906;1105;104236;-77
2021/10/25 06:32:51;;;;;;;;;;;;;;;5.67;61.60;102360.18;125022;1103;104197;-78
2021/10/25 06:35:42;;;;;;;24.77;10.33;;;;;;;5.79;60.98;102369.81;125006;1102;104223;-77
2021/10/25 06:38:33;;;;;;;27.27;12.47;;;;;;;5.84;61.19;102373.70;125072;1102;119990;-76
2021/10/25 06:41:04;;;;;;;23.73;11.23;;;;;;;5.93;61.30;102380.59;125062;1102;104252;-77
2021/10/25 06:43:33;;;;;;;27.35;11.10;;;;;;;5.99;61.38;102381.95;125198;1102;104214;-78
2021/10/25 06:46:04;;;;;;;25.50;10.83;;;;;;;6.07;61.18;102384.41;125201;1102;104158;-79
2021/10/25 06:48:34;;;;;;;23.80;10.47;;;;;;;6.20;61.20;102386.37;124959;1102;104296;-79
2021/10/25 06:51:04;;;;;;;25.70;11.47;;;;;;;6.32;61.01;102377.73;125185;1102;104175;-78
2021/10/25 06:53:49;;;;;;;26.43;11.53;;;;;;;6.43;60.92;102375.20;125107;1102;104191;-78
2021/10/25 06:56:25;;;;;;;30.80;11.05;;;;;;;6.55;60.83;102377.92;125182;1102;104181;-79
2021/10/25 06:58:57;;;;;;;27.67;11.37;;;;;;;6.66;60.90;102379.70;125165;1102;111461;-76
2021/10/25 07:01:28;;;;;;;26.93;11.13;;;;;;;6.75;60.84;102379.55;125091;1102;104159;-78
2021/10/25 07:04:01;;;;;;;25.63;10.87;;;;;;;6.82;60.73;102376.67;125171;1102;104304;-78
2021/10/25 07:06:38;;;;;;;29.13;12.57;;;;;;;6.90;60.83;102379.86;125092;1102;105038;-78
2021/10/25 07:09:09;;;;;;;27.60;11.63;;;;;;;6.97;60.43;102373.46;124918;1102;104217;-77
2021/10/25 07:11:43;;;;;;;29.23;11.67;;;;;;;7.06;60.53;102368.05;125088;1102;104239;-79
2021/10/25 07:14:14;;;;;;;;;;;;;;;7.16;60.49;102374.12;125172;1102;104246;-78
2021/10/25 07:17:03;;;;;;;32.20;12.37;;;;;;;7.25;60.29;102365.22;124914;1102;104226;-78
2021/10/25 07:19:49;;;;;;;29.63;11.90;;;;;;;7.39;60.06;102364.59;125241;1102;107633;-80
2021/10/25 07:28:09;;;;;;;29.97;11.67;;;;;;;7.67;59.83;102369.36;125106;1102;104248;-79
2021/10/25 08:07:02;;;;;;;15.17;5.77;;;;;;;8.84;55.06;102361.52;125011;1102;104211;-77
2021/10/25 08:09:51;;;;;;;15.57;6.43;;;;;;;8.95;55.47;102358.86;125167;1102;104172;-77
2021/10/25 08:12:25;;;;;;;13.50;5.47;;;;;;;8.97;54.68;102357.25;125134;1102;104638;-78
2021/10/25 08:14:58;;;;;;;17.27;5.90;;;;;;;9.03;53.97;102361.13;125111;1102;104341;-77
2021/10/25 08:17:40;;;;;;;18.67;6.00;;;;;;;9.09;53.95;102353.72;125107;1102;104182;-77
2021/10/25 08:20:11;;;;;;;13.37;4.70;;;;;;;9.03;53.50;102351.55;125139;1102;104163;-76
2021/10/25 08:22:42;;;;;;;12.53;4.80;;;;;;;9.03;53.82;102355.89;125151;1102;104169;-77
2021/10/25 08:25:14;;;;;;;8.67;3.87;;;;;;;9.10;52.38;102352.89;125120;1103;104278;-78
2021/10/25 08:27:58;;;;;;;11.45;3.58;;;;;;;9.07;52.27;102364.08;125107;1102;104169;-78
2021/10/25 08:30:39;;;;;;;8.83;3.90;;;;;;;9.03;50.54;102363.75;125069;1102;104214;-79
2021/10/25 08:33:29;;;;;;;11.77;4.57;;;;;;;9.08;52.28;102371.11;125214;1102;104274;-78
2021/10/25 08:36:10;;;;;;;13.00;4.60;;;;;;;9.12;51.09;102381.02;124999;1103;104172;-77
2021/10/25 08:42:01;;;;;;;9.00;3.80;;;;;;;9.34;51.46;102366.83;125139;1102;108701;-78
2021/10/25 08:44:31;;;;;;;10.30;4.28;;;;;;;9.44;51.37;102373.63;125224;1102;104211;-79
2021/10/25 08:47:06;;;;;;;11.73;4.57;;;;;;;9.54;51.33;102376.99;125221;1102;104201;-78
2021/10/25 08:49:36;;;;;;;14.97;4.97;;;;;;;9.73;51.63;102370.41;125138;1102;104223;-78
2021/10/25 08:52:06;;;;;;;13.03;4.73;;;;;;;9.94;51.22;102370.06;125152;1102;104300;-78
2021/10/25 08:54:41;;;;;;;13.43;5.20;;;;;;;10.08;50.76;102370.20;124935;1102;104173;-78
2021/10/25 08:57:11;;;;;;;14.57;5.30;;;;;;;10.25;51.24;102360.84;125097;1102;104383;-80
2021/10/25 08:59:58;;;;;;;12.13;4.70;;;;;;;10.39;50.04;102361.80;125062;1102;104156;-80
2021/10/25 09:02:43;;;;;;;10.10;4.40;;;;;;;10.42;48.36;102367.25;125206;1102;104213;-76
2021/10/25 09:08:11;;;;;;;9.53;3.75;;;;;;;10.28;48.91;102362.74;125153;1102;104268;-78
2021/10/25 09:10:45;;;;;;;11.77;4.07;;;;;;;10.19;49.71;102360.44;125299;1102;105512;-78
2021/10/25 09:13:28;;;;;;;8.85;3.50;;;;;;;10.18;48.25;102360.33;125445;1102;104153;-79
2021/10/25 09:16:03;;;;;;;6.47;3.40;;;;;;;10.17;48.32;102358.50;125012;1102;104200;-78
2021/10/25 09:18:53;;;;;;;7.90;3.80;;;;;;;10.03;48.59;102350.59;125170;1102;104164;-77
2021/10/25 09:21:33;;;;;;;8.63;3.40;;;;;;;10.04;48.09;102347.19;125061;1102;104710;-78
2021/10/25 09:24:16;;;;;;;8.85;3.70;;;;;;;10.14;48.60;102342.55;125124;1102;104153;-77
2021/10/25 09:26:58;;;;;;;7.60;3.57;;;;;;;10.31;48.85;102349.83;125117;1102;104187;-78
2021/10/25 09:29:32;;;;;;;9.70;3.90;;;;;;;10.48;48.32;102344.83;125145;1102;105276;-76
2021/10/25 09:32:09;;;;;;;9.53;3.80;;;;;;;10.58;48.22;102326.22;125097;1102;104143;-77
2021/10/25 09:34:48;;;;;;;9.77;4.00;;;;;;;10.67;47.57;102324.20;125137;1102;104221;-78
2021/10/25 09:37:44;;;;;;;9.53;4.00;;;;;;;10.73;46.97;102321.07;125142;1102;104208;-78
2021/10/25 09:40:24;;;;;;;8.53;3.80;;;;;;;10.78;47.25;102325.81;125032;1102;104335;-78
2021/10/25 09:51:22;;;;;;;7.93;3.20;;;;;;;10.79;45.18;102303.98;125106;1102;104160;-77
2021/10/25 09:53:59;;;;;;;9.97;3.77;;;;;;;10.80;44.85;102310.16;124984;1105;104280;-78
2021/10/25 09:56:32;;;;;;;10.03;3.50;;;;;;;10.79;45.17;102306.60;125170;1102;104171;-78
2021/10/25 09:59:31;;;;;;;10.00;3.80;;;;;;;10.75;44.19;102312.49;125152;1102;104286;-78
2021/10/25 10:02:07;;;;;;;8.60;3.80;;;;;;;10.70;44.78;102310.37;124973;1102;104205;-77
2021/10/25 10:04:41;;;;;;;6.77;3.60;;;;;;;10.77;45.09;102308.23;124907;1102;104452;-77
2021/10/25 10:07:23;;;;;;;8.23;3.50;;;;;;;10.75;44.76;102299.36;124932;1102;104280;-77
2021/10/25 10:10:01;;;;;;;8.90;3.63;;;;;;;10.84;44.84;102299.02;124889;1105;103358;-76
2021/10/25 10:12:32;;;;;;;7.85;3.65;;;;;;;10.94;44.11;102301.43;125023;1102;104259;-76
2021/10/25 10:15:05;;;;;;;11.33;3.73;;;;;;;10.99;43.71;102296.47;125066;1102;104335;-77
2021/10/25 10:17:56;;;;;;;10.17;3.63;;;;;;;11.08;44.40;102299.67;124871;1102;104657;-77
2021/10/25 10:20:29;;;;;;;13.80;4.53;;;;;;;11.13;44.19;102292.08;125100;1102;104309;-78
2021/10/25 10:23:06;;;;;;;8.28;3.52;;;;;;;11.11;42.91;102293.67;124997;1102;102987;-78
2021/10/25 10:25:39;;;;;;;8.83;3.83;;;;;;;11.04;43.71;102284.52;125009;1102;104242;-78
2021/10/25 10:28:10;;;;;;;8.60;3.70;;;;;;;10.96;42.96;102296.27;125055;1102;104203;-77
2021/10/25 10:30:50;;;;;;;12.67;3.90;;;;;;;10.95;43.29;102282.24;125050;1102;104588;-78
2021/10/25 10:33:31;;;;;;;6.93;3.57;;;;;;;10.96;42.70;102283.14;124945;1102;104322;-77
2021/10/25 10:36:12;;;;;;;11.70;4.00;;;;;;;11.00;42.74;102278.98;124853;1102;104595;-78
2021/10/25 10:38:51;;;;;;;7.43;3.53;;;;;;;11.08;43.07;102273.39;124855;1102;104549;-78
2021/10/25 10:41:45;;;;;;;9.45;4.10;;;;;;;11.11;42.44;102273.59;124787;1102;104326;-78
2021/10/25 10:44:28;;;;;;;9.87;4.00;;;;;;;11.14;41.53;102278.10;124855;1102;104566;-78
2021/10/25 10:47:02;;;;;;;10.27;4.10;;;;;;;11.19;41.26;102274.06;124872;1102;104335;-79
2021/10/25 10:49:41;;;;;;;8.23;3.53;;;;;;;11.17;41.67;102270.41;124848;1102;104178;-78
2021/10/25 10:52:21;;;;;;;8.87;3.80;;;;;;;11.14;40.55;102271.15;124909;1102;104249;-79
2021/10/25 10:55:03;;;;;;;8.53;3.40;;;;;;;11.10;41.77;102277.02;124886;1102;104582;-79
2021/10/25 11:00:39;;;;;;;8.00;3.57;;;;;;;11.17;41.71;102269.52;124836;1105;104162;-80
2021/10/25 11:03:20;;;;;;;11.67;4.20;;;;;;;11.18;41.99;102260.83;124913;1106;105127;-78
2021/10/25 11:05:59;;;;;;;12.00;4.10;;;;;;;11.19;42.00;102259.99;124997;1105;103272;-78
2021/10/25 11:08:38;;;;;;;9.73;4.33;;;;;;;11.23;41.87;102256.75;125061;1102;102031;-80
2021/10/25 11:11:13;;;;;;;10.07;4.00;;;;;;;11.24;41.75;102253.33;125181;1102;104483;-80
2021/10/25 11:13:47;;;;;;;8.67;3.80;;;;;;;11.19;41.50;102250.41;125107;1102;104179;-78
2021/10/25 11:16:23;;;;;;;12.03;4.30;;;;;;;11.10;40.15;102253.37;125188;1102;104277;-78
2021/10/25 11:18:58;;;;;;;11.03;3.93;;;;;;;11.08;41.21;102247.13;125136;1102;104301;-79
2021/10/25 11:21:30;;;;;;;10.97;4.30;;;;;;;11.01;39.96;102252.80;125139;1103;104162;-78
2021/10/25 11:24:05;;;;;;;9.20;4.17;;;;;;;11.05;40.21;102251.30;125147;1102;104297;-79
2021/10/25 11:26:42;;;;;;;12.57;4.30;;;;;;;11.02;40.03;102246.75;124888;1105;104208;-80
2021/10/25 11:29:16;;;;;;;13.73;4.80;;;;;;;10.98;39.75;102244.73;125035;1102;104274;-80
2021/10/25 11:31:48;;;;;;;10.37;4.37;;;;;;;10.96;40.34;102242.01;124896;1102;104256;-78
2021/10/25 11:34:22;;;;;;;15.10;4.53;;;;;;;10.96;40.27;102247.27;124968;1102;104210;-79
2021/10/25 11:36:59;;;;;;;10.53;4.50;;;;;;;11.04;40.99;102244.22;125156;1102;104239;-78
2021/10/25 11:39:39;;;;;;;11.07;4.40;;;;;;;11.11;40.89;102236.80;125176;1102;101613;-80
2021/10/25 11:42:15;;;;;;;10.50;4.60;;;;;;;11.22;40.89;102231.28;125159;1102;104191;-78
2021/10/25 11:44:45;;;;;;;13.95;4.85;;;;;;;11.23;41.08;102230.48;125264;1101;104188;-79
2021/10/25 11:47:23;;;;;;;13.33;4.70;;;;;;;11.23;41.01;102227.84;125130;1102;104201;-79
2021/10/25 11:49:58;;;;;;;10.47;4.37;;;;;;;11.22;40.96;102231.28;125111;1102;104174;-79
2021/10/25 11:52:35;;;;;;;11.97;5.00;;;;;;;11.14;40.66;102231.73;125138;1102;104153;-78
2021/10/25 11:55:09;;;;;;;10.47;4.83;;;;;;;11.15;40.92;102223.02;125113;1102;104147;-79
2021/10/25 11:57:49;;;;;;;15.80;5.17;;;;;;;11.18;41.24;102226.67;125234;1102;104261;-80
2021/10/25 12:00:24;;;;;;;10.80;4.20;;;;;;;11.21;40.54;102221.60;124979;1102;104262;-81
2021/10/25 12:03:10;;;;;;;13.57;4.50;;;;;;;11.26;40.92;102217.52;125000;1102;102201;-80
2021/10/25 12:05:41;;;;;;;13.20;4.67;;;;;;;11.23;40.54;102219.96;125108;1102;102921;-79
2021/10/25 12:08:16;;;;;;;11.67;4.50;;;;;;;11.14;39.73;102215.05;125117;1103;104381;-80
2021/10/25 12:10:53;;;;;;;10.20;4.33;;;;;;;11.11;40.73;102218.41;125055;1102;104195;-81
2021/10/25 12:13:26;;;;;;;7.73;3.67;;;;;;;11.17;40.46;102212.61;124960;1102;104306;-79
2021/10/25 12:16:00;;;;;;;12.50;4.50;;;;;;;11.21;40.33;102216.34;125071;1102;104299;-79
2021/10/25 12:18:33;;;;;;;12.15;4.50;;;;;;;11.14;40.13;102205.47;124968;1102;104245;-80
2021/10/25 12:21:10;;;;;;;10.80;4.90;;;;;;;11.10;39.66;102200.83;124930;1102;104252;-79
2021/10/25 12:23:46;;;;;;;12.13;4.70;;;;;;;11.08;39.79;102202.47;125176;1102;104311;-78
2021/10/25 12:26:18;;;;;;;11.93;4.77;;;;;;;11.00;39.65;102195.84;125059;1102;104287;-77
2021/10/25 12:28:51;;;;;;;9.83;4.40;;;;;;;10.95;39.15;102194.64;125095;1102;104306;-78
2021/10/25 12:31:22;;;;;;;10.60;5.10;;;;;;;10.92;39.31;102199.70;125153;1102;104233;-80
2021/10/25 12:34:02;;;;;;;10.37;4.10;;;;;;;10.92;39.94;102203.26;125166;1102;104641;-79
2021/10/25 12:36:37;;;;;;;16.67;4.90;;;;;;;10.94;39.92;102204.25;125002;1102;104223;-79
2021/10/25 12:39:11;;;;;;;10.47;4.30;;;;;;;10.94;40.08;102196.37;125170;1102;104620;-79
2021/10/25 12:41:57;;;;;;;9.23;4.17;;;;;;;10.92;39.79;102197.08;125188;1102;104262;-79
2021/10/25 12:44:31;;;;;;;12.03;4.33;;;;;;;10.86;39.64;102188.81;124978;1101;104634;-79
2021/10/25 12:47:13;;;;;;;12.00;4.63;;;;;;;10.85;40.08;102189.66;125156;1102;104174;-80
2021/10/25 12:49:48;;;;;;;10.73;4.33;;;;;;;10.84;40.29;102187.83;124946;1105;105665;-79
2021/10/25 12:52:20;;;;;;;12.20;4.10;;;;;;;10.84;39.89;102185.20;124949;1105;104300;-79
2021/10/25 12:54:51;;;;;;;13.63;4.50;;;;;;;10.82;39.80;102182.48;124979;1105;104325;-79
2021/10/25 12:57:24;;;;;;;10.80;4.37;;;;;;;10.79;39.98;102177.94;125085;1105;110633;-80
2021/10/25 13:00:10;;;;;;;12.83;4.57;;;;;;;10.79;40.21;102183.19;124985;1105;104325;-79
2021/10/25 13:02:48;;;;;;;10.70;4.57;;;;;;;10.79;40.05;102184.92;124981;1102;104162;-79
2021/10/25 13:05:19;;;;;;;8.23;3.97;;;;;;;10.82;40.12;102178.95;124926;1105;105172;-79
2021/10/25 13:07:52;;;;;;;13.47;4.40;;;;;;;10.81;40.31;102179.77;124942;1102;104226;-79
2021/10/25 13:10:24;;;;;;;13.73;4.37;;;;;;;10.80;39.67;102181.48;124911;1106;103128;-78
2021/10/25 13:12:57;;;;;;;10.33;4.03;;;;;;;10.81;39.73;102177.13;124977;1106;104217;-80
2021/10/25 13:15:31;;;;;;;8.77;3.80;;;;;;;10.81;40.18;102174.51;124973;1105;104188;-80